Gilman, IL (60938)

9:07 PM CDT on June 24, 2018 (GMT -0500)
FARM 4 MILES N.E. OF TOWN | | Change Station
Active Advisory: Flood Advisory Active Notice: Flood Advisory

Elev 668 ft 40.81 °N, 88.16 °W | Updated 12 minutes ago

Clear
Clear
68 °F
Feels Like 68 °F
N
4
Wind Variable Wind from East
Gusts 0.0 mph

Today
High -- | Low -- °F
--% Chance of Precip.
Yesterday
High -- | Low -- °F
Precip. -- in
Pressure 30.03 in
Visibility 10.0 miles
Clouds Clear
Dew Point 64 °F
Humidity 86%
Rainfall 0.00 in
Snow Depth Not available.
5:21 AM 8:27 PM
Waxing Gibbous, 91% visible
METAR KIKK 250155Z AUTO 04006KT 10SM CLR 19/16 A3003 RMK AO2 T01930160
Pressure 30.03 in
Visibility 10.0 miles
Clouds Clear
Dew Point 64 °F
Humidity 86%
Rainfall 0.00 in
Snow Depth Not available.
5:21 AM 8:27 PM
Waxing Gibbous, 91% visible
METAR KIKK 250155Z AUTO 04006KT 10SM CLR 19/16 A3003 RMK AO2 T01930160

Get Your Daily Forecast Email!

Thanks for signing up!

Be on the lookout for a verification email in your inbox.

You'll start receiving severe weather alerts in your inbox..

×

10-Day Weather Forecast

Almanac

Astronomy

Jun. 24, 2018 Rise Set
Actual Time
Civil Twilight
Nautical Twilight
Astronomical Twilight
Moon
Length of Visible Light
Length of Day
Tomorrow will be .
, % of the Moon is Illuminated

Today's Extremes

State Highs State Lows

Community

WunderPhotos

Category 6

Welcome to Category 6. This is the collective home for Weather Underground's featured writeups by Dr. Jeff Masters (right), Bob Henson (left), Chris Burt, and other regular contributors.

Nearby

Air Quality

  Air Quality AQ Index Pollutant
Not available.

Snow Depth

Station Depth Elevation

Earthquake Activity

City Distance Mag. Time & Date
Minimum magnitude displayed is 2.5.

Coastal Water Temperatures

Place Temperature

Stations

Nearby Weather Stations

Station Location Temp. Windchill Dew Point Humidity Wind Precip. Elev Updated Type
                   

Watches & Warnings

Flood Advisory
Issued: 8:30 PM CDT Jun. 24, 2018 – National Weather Service

The flood advisory continues for
the Sugar Creek at Milford
* until Monday afternoon.
* At 800 PM Sunday the stage was 16.4 feet.
* Action stage is 15.0 feet.
* Flood stage is 18.0 feet.
* Forecast... the river will continue to fall.


Lat... Lon 4060 8742 4057 8778 4077 8780 4078 8765
      4069 8764 4070 8743